Terminal Aerodrome Forecast
Issued by NWS

Current Version | Previous Version | Text Only | Print | Product List | Glossary On
Versions: 1 2 3 4 5 6 7 8 9 10 11 12 13 14 15 16 17
542
FTUS43 KJKL 280908 AAB
TAFSME
TAF AMD
KSME 280908Z 2809/2906 26008KT P6SM VCSH BKN015 OVC050
     FM281300 27005KT P6SM SCT003 BKN010
     FM281800 28006KT P6SM SCT010 BKN020=

USA.gov is the U.S. government's official web portal to all federal, state and local government web resources and services.